LiveATC.Net - Listen to live air traffic control over the Internet!


ICAO: LZTN  IATA:   Airport: Trencin Airport
City: Trencin
Country: Slovakia   Continent: Europe
LZPP METAR Weather: LZPP 221830Z 30010KT CAVOK 16/04 Q1018
LZTN Flight Activity (FlightAware)

LZTN CTAF
Feed Status: DOWN
Last heard on: 2018-06-21 08:07:02 (1 days 11 hours 3 minutes ago)
FacilityFrequency
Trencin Traffic123.600

NOTICE

Unauthorized use prohibited. See LiveATC.net Terms of Service


Find LiveATC Audio Streams


Airport/ARTCC Code

Frequency Search
(e.g., 124.400, 128.75)
Site-wide search
 


Browse LiveATC Feeds
LiveATC Coverage Map
Top 50 LiveATC Feeds
Bad Weather Areas

LiveATC FAQ
Offer a LiveATC Feed
Contact LiveATC.net
Press Inquiries

LiveATC on iPhone
LiveATC on Android

Windows Phone
Windows 8/10

LiveATC Mobile
(Mobile browser)

ATC Audio Archives
Interesting Recordings

LiveATC Forums


Home Page
About LiveATC.net
Make a Donation
Terms of Use
Privacy Policy

Canadian Air Freqs

AIRMETs/SIGMETs

FAA Airport Status
Nat'l Airspace Status
Arrival Demand Charts


Server Software By:
Icecast.org
Liquidsoap